Погода Гомес-Паласиона 2 недели

Дуранго, Мексика

19 - 31 июля
  • 19июля
    Сегодня
    +21°
    +31°
    Облачно с прояснениями
    ВремяПогодаТемператураВлажностьДавлениеВетер, м/сВероятность осадков
    00:00Облачно с прояснениями+25°C82 %672 мм0.9 м/с25 %
    03:00Облачно с прояснениями+23°C91 %671 мм2.4 м/с34 %
    06:00Небольшая облачность+22°C94 %670 мм1.1 м/с20 %
    09:00Небольшая облачность+24°C76 %672 мм1.8 м/с21 %
    12:00Практически безоблачно+27°C60 %672 мм2.6 м/с29 %
    15:00Облачно с прояснениями+29°C47 %670 мм4.1 м/с45 %
    18:00Небольшая облачность, возможен дождь с грозой+30°C51 %670 мм3.7 м/с46 %
    21:00Облачно с прояснениями+27°C63 %670 мм1.4 м/с12 %
  • 20июля
    Суббота
    +22°
    +33°
    Практически безоблачно
    ВремяПогодаТемператураВлажностьДавлениеВетер, м/сВероятность осадков
    00:00Облачно с прояснениями+25°C68 %670 мм1.2 м/с7 %
    03:00Облачно с прояснениями+23°C74 %670 мм0.6 м/с7 %
    06:00Облачно с прояснениями+22°C82 %669 мм0.5 м/с6 %
    09:00Практически безоблачно+26°C66 %671 мм1.8 м/с2 %
    12:00Ясно и безоблачно+29°C53 %672 мм2.5 м/с11 %
    15:00Практически безоблачно+31°C42 %670 мм3.9 м/с14 %
    18:00Практически безоблачно+32°C38 %669 мм4.0 м/с18 %
    21:00Ясно и безоблачно+28°C59 %670 мм1.6 м/с8 %
  • 21июля
    Воскресенье
    +22°
    +34°
    Ясно и безоблачно
    ВремяПогодаТемператураВлажностьДавлениеВетер, м/сВероятность осадков
    00:00Ясно и безоблачно+26°C70 %669 мм1.0 м/с3 %
    03:00Ясно и безоблачно+24°C80 %668 мм0.8 м/с3 %
    06:00Ясно и безоблачно+23°C82 %668 мм0.6 м/с2 %
    09:00Ясно и безоблачно+26°C62 %670 мм1.7 м/с2 %
    12:00Ясно и безоблачно+30°C42 %670 мм2.3 м/с7 %
    15:00Ясно и безоблачно+32°C31 %668 мм3.6 м/с9 %
    18:00Практически безоблачно+33°C25 %667 мм4.6 м/с5 %
    21:00Ясно и безоблачно+29°C35 %668 мм2.6 м/с4 %
  • 22июля
    Понедельник
    +23°
    +34°
    Практически безоблачно
    ВремяПогодаТемператураВлажностьДавлениеВетер, м/сВероятность осадков
    00:00Ясно и безоблачно+27°C51 %668 мм1.8 м/с6 %
    03:00Ясно и безоблачно+25°C60 %667 мм0.9 м/с2 %
    06:00Ясно и безоблачно+23°C75 %667 мм0.9 м/с2 %
    09:00Ясно и безоблачно+27°C62 %669 мм2.1 м/с2 %
    12:00Ясно и безоблачно+31°C40 %669 мм2.3 м/с8 %
    15:00Практически безоблачно+33°C27 %667 мм3.9 м/с4 %
    18:00Практически безоблачно+34°C27 %666 мм3.7 м/с12 %
    21:00Небольшая облачность+31°C31 %667 мм2.5 м/с24 %
Мы используем cookies
Соглашаюсь